Time;durP1;ratioP1;P1;durP2;ratioP2;P2;SDS_P1;SDS_P2;PMS_P1;PMS_P2;Temp;Humidity;BMP_temperature;BMP_pressure;BME280_temperature;BME280_humidity;BME280_pressure;Samples;Min_cycle;Max_cycle;Signal;HPM_P1;HPM_P2
2022/05/08 00:00:41;;;;;;;16.65;5.32;;;;;;;12.16;97.38;102143.97;5031676;28;20098;-82
2022/05/08 00:03:07;;;;;;;15.63;5.90;;;;;;;12.16;97.90;102146.69;5049227;28;21050;-82
2022/05/08 00:05:32;;;;;;;16.25;5.72;;;;;;;12.03;98.27;102130.88;5033012;28;20350;-86
2022/05/08 00:07:58;;;;;;;17.25;6.00;;;;;;;11.96;98.52;102120.84;5032674;28;20098;-83
2022/05/08 00:10:23;;;;;;;14.52;6.30;;;;;;;11.88;98.74;102126.97;5014438;28;20127;-87
2022/05/08 00:12:49;;;;;;;16.02;6.07;;;;;;;11.91;99.10;102145.56;5050782;28;20025;-83
2022/05/08 00:15:14;;;;;;;14.75;6.15;;;;;;;11.76;99.65;102133.56;5032850;28;20408;-84
2022/05/08 00:17:40;;;;;;;14.23;5.63;;;;;;;11.72;99.96;102140.22;5032842;28;20065;-82
2022/05/08 00:20:09;;;;;;;15.30;5.95;;;;;;;11.65;100.00;102131.91;5049306;28;20041;-83
2022/05/08 00:22:35;;;;;;;14.35;6.10;;;;;;;11.44;100.00;102114.13;5013700;28;20067;-83
2022/05/08 00:25:02;;;;;;;19.23;7.28;;;;;;;11.52;100.00;102139.50;5047352;28;20057;-85
2022/05/08 00:27:28;;;;;;;18.02;5.65;;;;;;;11.39;100.00;102131.75;5042955;28;20068;-82
2022/05/08 00:29:53;;;;;;;19.95;5.75;;;;;;;11.23;100.00;102126.97;5017662;28;20067;-84
2022/05/08 00:32:20;;;;;;;17.27;6.25;;;;;;;11.20;100.00;102135.34;5046436;28;20036;-82
2022/05/08 00:34:45;;;;;;;13.43;5.80;;;;;;;11.12;100.00;102135.22;5040787;28;20034;-87
2022/05/08 00:37:11;;;;;;;17.50;6.13;;;;;;;11.00;100.00;102127.31;5048171;28;20064;-85
2022/05/08 00:39:36;;;;;;;19.80;7.50;;;;;;;10.99;100.00;102136.38;5050030;28;20120;-83
2022/05/08 00:42:02;;;;;;;16.65;6.80;;;;;;;10.97;100.00;102151.81;5047697;28;20086;-83
2022/05/08 00:44:28;;;;;;;17.65;6.40;;;;;;;10.86;100.00;102132.31;5015682;28;20041;-83
2022/05/08 00:46:54;;;;;;;16.02;7.28;;;;;;;10.85;100.00;102144.03;5048215;28;20021;-87
2022/05/08 00:49:19;;;;;;;24.98;7.30;;;;;;;10.74;100.00;102131.59;5044351;28;20377;-88
2022/05/08 00:51:48;;;;;;;20.80;6.45;;;;;;;10.65;100.00;102129.78;5032415;28;20037;-83
2022/05/08 00:54:15;;;;;;;16.17;6.15;;;;;;;10.50;100.00;102122.13;5041133;28;20102;-85
2022/05/08 00:56:41;;;;;;;14.90;5.78;;;;;;;10.34;100.00;102120.00;5048879;28;20514;-82
2022/05/08 00:59:07;;;;;;;25.80;6.70;;;;;;;10.16;100.00;102116.31;5048666;28;20119;-84
2022/05/08 01:01:33;;;;;;;23.25;6.93;;;;;;;10.05;100.00;102117.25;5049635;28;20123;-86
2022/05/08 01:03:58;;;;;;;16.70;6.35;;;;;;;9.94;100.00;102117.38;5049069;28;20021;-87
2022/05/08 01:06:24;;;;;;;22.13;7.65;;;;;;;9.85;100.00;102119.06;5041409;28;20032;-83
2022/05/08 01:08:51;;;;;;;28.27;8.20;;;;;;;9.75;100.00;102123.56;5040561;28;20195;-82
2022/05/08 01:11:17;;;;;;;20.83;7.18;;;;;;;9.71;100.00;102115.91;5032191;28;20078;-84
2022/05/08 01:13:44;;;;;;;18.08;7.20;;;;;;;9.53;100.00;102091.56;5009155;28;20116;-84
2022/05/08 01:16:11;;;;;;;51.42;11.95;;;;;;;9.35;100.00;102068.03;5014962;28;20361;-84
2022/05/08 01:18:38;;;;;;;25.27;8.25;;;;;;;9.52;100.00;102108.63;5032725;28;20041;-82
2022/05/08 01:21:09;;;;;;;39.30;10.68;;;;;;;9.52;100.00;102097.91;5050611;28;20029;-83
2022/05/08 01:23:36;;;;;;;44.08;12.10;;;;;;;9.45;100.00;102103.81;5052291;28;20021;-84
2022/05/08 01:26:02;;;;;;;30.00;9.27;;;;;;;9.41;100.00;102107.75;5045819;28;20029;-83
2022/05/08 01:28:29;;;;;;;36.10;10.57;;;;;;;9.33;100.00;102094.16;5027031;28;20339;-82
2022/05/08 01:30:55;;;;;;;19.60;7.85;;;;;;;9.34;100.00;102106.63;5053638;28;20466;-83
2022/05/08 01:33:22;;;;;;;12.68;6.93;;;;;;;9.17;100.00;102075.88;5035920;28;20051;-85
2022/05/08 01:35:49;;;;;;;13.07;6.07;;;;;;;9.20;100.00;102106.94;5035731;28;20025;-82
2022/05/08 01:38:17;;;;;;;15.77;6.10;;;;;;;9.01;100.00;102097.81;5052766;28;20059;-86
2022/05/08 01:40:45;;;;;;;23.40;7.25;;;;;;;8.82;100.00;102088.81;5052107;28;20078;-82
2022/05/08 01:43:12;;;;;;;20.52;7.68;;;;;;;8.64;100.00;102067.09;5050979;28;20025;-83
2022/05/08 01:45:38;;;;;;;19.35;6.43;;;;;;;8.56;100.00;102071.28;5051699;28;20036;-84
2022/05/08 01:48:23;;;;;;;15.95;6.20;;;;;;;8.54;100.00;102089.31;5019893;28;20037;-83
2022/05/08 01:50:54;;;;;;;20.42;6.93;;;;;;;8.49;100.00;102077.28;5017476;28;20028;-85
2022/05/08 01:53:21;;;;;;;15.45;6.78;;;;;;;8.45;100.00;102073.19;5044225;28;20039;-82
2022/05/08 01:55:49;;;;;;;22.20;8.70;;;;;;;8.50;100.00;102068.28;5035562;28;20373;-83
2022/05/08 01:58:17;;;;;;;19.00;6.22;;;;;;;8.57;100.00;102074.81;5019057;28;20458;-83
2022/05/08 02:00:43;;;;;;;19.85;7.55;;;;;;;8.50;100.00;102054.88;5053433;28;20056;-84
2022/05/08 02:03:08;;;;;;;18.20;7.38;;;;;;;8.59;100.00;102068.34;5036163;28;20473;-82
2022/05/08 02:05:34;;;;;;;20.63;8.55;;;;;;;8.64;100.00;102072.47;5051249;28;20091;-85
2022/05/08 02:08:01;;;;;;;22.20;8.48;;;;;;;8.61;100.00;102072.75;5053275;28;20347;-81
2022/05/08 02:10:26;;;;;;;19.52;6.97;;;;;;;8.53;100.00;102062.66;5034909;28;20510;-82
2022/05/08 02:12:52;;;;;;;23.98;7.85;;;;;;;8.52;100.00;102069.88;5052969;28;20040;-83
2022/05/08 02:15:18;;;;;;;19.95;6.40;;;;;;;8.48;100.00;102073.78;5027561;28;20025;-83
2022/05/08 02:17:43;;;;;;;19.20;7.35;;;;;;;8.49;100.00;102075.44;5018869;28;20032;-85
2022/05/08 02:20:09;;;;;;;18.63;7.25;;;;;;;8.51;100.00;102067.28;5050395;28;20397;-85
2022/05/08 02:22:36;;;;;;;19.20;6.85;;;;;;;8.48;100.00;102067.56;5035133;28;20108;-84
2022/05/08 02:25:03;;;;;;;19.30;6.97;;;;;;;8.43;100.00;102075.13;5051661;28;20102;-87
2022/05/08 02:27:37;;;;;;;23.20;7.43;;;;;;;8.36;100.00;102075.63;5011062;28;20516;-85
2022/05/08 02:30:04;;;;;;;23.95;7.97;;;;;;;8.16;100.00;102041.63;5051199;28;20497;-84
2022/05/08 02:32:30;;;;;;;29.25;8.00;;;;;;;8.22;100.00;102062.53;5050120;28;20033;-83
2022/05/08 02:34:55;;;;;;;18.88;7.60;;;;;;;8.23;100.00;102080.31;5024038;28;20087;-86
2022/05/08 02:37:21;;;;;;;21.05;7.07;;;;;;;8.20;100.00;102077.03;5051414;28;20027;-81
2022/05/08 02:39:47;;;;;;;22.00;8.13;;;;;;;8.15;100.00;102088.16;5052282;28;20379;-83
2022/05/08 02:42:13;;;;;;;26.80;9.52;;;;;;;8.08;100.00;102086.94;5010548;28;20031;-85
2022/05/08 02:44:38;;;;;;;23.20;8.77;;;;;;;8.04;100.00;102096.19;5050902;28;20021;-85
2022/05/08 02:47:04;;;;;;;23.15;8.00;;;;;;;7.96;100.00;102093.31;5009255;28;20044;-83
2022/05/08 02:49:29;;;;;;;23.02;8.40;;;;;;;7.88;100.00;102081.38;5032918;28;20091;-85
2022/05/08 02:51:55;;;;;;;23.70;9.50;;;;;;;8.13;100.00;102103.50;5051416;28;20060;-85
2022/05/08 02:54:21;;;;;;;35.70;10.52;;;;;;;8.25;100.00;102099.78;5048757;28;20075;-83
2022/05/08 02:59:30;;;;;;;36.92;11.60;;;;;;;8.41;100.00;102087.81;5045936;28;20036;-85
2022/05/08 03:01:56;;;;;;;26.10;9.65;;;;;;;8.43;100.00;102093.91;5041142;28;20033;-86
2022/05/08 03:04:21;;;;;;;33.97;11.48;;;;;;;8.36;100.00;102081.00;5049321;28;20665;-86
2022/05/08 03:06:47;;;;;;;33.33;11.57;;;;;;;8.48;100.00;102089.00;5060319;28;20024;-82
2022/05/08 03:09:12;;;;;;;41.67;13.30;;;;;;;8.52;100.00;102095.78;5071248;28;20033;-83
2022/05/08 03:11:38;;;;;;;40.15;13.40;;;;;;;8.44;100.00;102088.44;5075729;28;20029;-83
2022/05/08 03:14:04;;;;;;;40.53;12.85;;;;;;;8.50;100.00;102097.78;5052332;28;20016;-82
2022/05/08 03:16:30;;;;;;;41.15;12.25;;;;;;;8.67;100.00;102096.34;5076437;28;20041;-84
2022/05/08 03:18:55;;;;;;;42.78;13.23;;;;;;;8.86;100.00;102096.44;5075135;28;20035;-86
2022/05/08 03:21:22;;;;;;;44.58;14.07;;;;;;;9.06;100.00;102094.75;5052996;28;20039;-88
2022/05/08 03:23:48;;;;;;;42.53;13.65;;;;;;;9.12;100.00;102072.72;5016133;28;20464;-84
2022/05/08 03:26:16;;;;;;;36.97;12.20;;;;;;;9.33;100.00;102091.47;5053321;28;20017;-85
2022/05/08 03:28:42;;;;;;;46.05;13.18;;;;;;;9.45;100.00;102092.25;5054293;28;20033;-85
2022/05/08 03:31:09;;;;;;;36.83;12.45;;;;;;;9.52;100.00;102090.69;5034634;28;20045;-87
2022/05/08 03:33:36;;;;;;;35.45;12.98;;;;;;;9.56;100.00;102084.06;5038389;28;20021;-84
2022/05/08 03:36:03;;;;;;;35.58;12.90;;;;;;;9.57;100.00;102080.41;5032953;28;20116;-84
2022/05/08 03:38:30;;;;;;;31.98;11.10;;;;;;;9.56;100.00;102080.53;5016922;28;20039;-84
2022/05/08 03:40:56;;;;;;;34.72;11.80;;;;;;;9.61;100.00;102076.47;5051241;28;20029;-84
2022/05/08 03:43:22;;;;;;;26.85;10.45;;;;;;;9.61;100.00;102068.41;5005353;28;20029;-84
2022/05/08 03:45:49;;;;;;;29.40;10.88;;;;;;;9.73;100.00;102076.34;5016987;28;20528;-82
2022/05/08 03:48:15;;;;;;;28.13;9.77;;;;;;;9.78;100.00;102087.53;5050119;28;20052;-85
2022/05/08 03:50:41;;;;;;;27.88;9.55;;;;;;;9.78;100.00;102074.94;5033777;28;20124;-88
2022/05/08 03:53:06;;;;;;;28.33;8.18;;;;;;;9.67;100.00;102056.25;5031532;28;20124;-86
2022/05/08 03:55:32;;;;;;;23.15;9.40;;;;;;;9.84;100.00;102069.03;5049129;28;20032;-85
2022/05/08 03:57:58;;;;;;;19.70;7.78;;;;;;;9.86;100.00;102076.94;5050771;28;20496;-85
2022/05/08 04:00:23;;;;;;;23.08;8.02;;;;;;;9.78;100.00;102056.13;5048162;28;20116;-85
2022/05/08 04:02:49;;;;;;;26.80;9.00;;;;;;;9.90;100.00;102073.84;5046458;28;20378;-84
2022/05/08 04:05:15;;;;;;;23.92;8.75;;;;;;;9.91;100.00;102072.00;5049832;28;20025;-84
2022/05/08 04:07:41;;;;;;;22.23;8.95;;;;;;;9.94;100.00;102066.34;5050218;28;20033;-86
2022/05/08 04:10:08;;;;;;;26.48;8.10;;;;;;;9.89;100.00;102056.00;5049321;28;20033;-84
2022/05/08 04:12:35;;;;;;;22.15;8.38;;;;;;;9.90;100.00;102057.72;5049443;28;20381;-89
2022/05/08 04:15:00;;;;;;;19.63;8.07;;;;;;;9.96;100.00;102064.38;5015467;28;20095;-89
2022/05/08 04:17:28;;;;;;;16.67;6.90;;;;;;;9.89;100.00;102068.59;5005028;28;20026;-85
2022/05/08 04:19:55;;;;;;;16.48;7.07;;;;;;;9.67;100.00;102037.47;5047368;28;20056;-87
2022/05/08 04:25:07;;;;;;;21.58;6.88;;;;;;;9.56;100.00;102053.69;5047877;28;20033;-84
2022/05/08 04:27:35;;;;;;;18.13;7.28;;;;;;;9.61;100.00;102063.03;5041046;28;20618;-84
2022/05/08 04:30:02;;;;;;;18.17;7.95;;;;;;;9.65;100.00;102059.06;5016632;28;20526;-84
2022/05/08 04:32:28;;;;;;;24.23;8.00;;;;;;;9.67;100.00;102054.41;5016989;28;20504;-85
2022/05/08 04:34:53;;;;;;;20.67;8.20;;;;;;;9.77;100.00;102053.59;5050414;28;20029;-84
2022/05/08 04:37:19;;;;;;;25.20;8.32;;;;;;;9.82;100.00;102054.03;5049640;28;20499;-84
2022/05/08 04:39:44;;;;;;;27.33;10.32;;;;;;;9.86;100.00;102053.59;5049723;28;20194;-86
2022/05/08 04:42:10;;;;;;;22.67;8.15;;;;;;;9.91;100.00;102039.75;5032561;28;20071;-83
2022/05/08 04:44:35;;;;;;;21.85;7.97;;;;;;;9.75;100.00;102015.28;5049867;28;20060;-84
2022/05/08 04:47:01;;;;;;;20.60;7.97;;;;;;;9.99;100.00;102057.84;5033122;28;20514;-85
2022/05/08 04:49:27;;;;;;;20.40;7.15;;;;;;;10.01;100.00;102054.03;5048852;28;20033;-83
2022/05/08 04:51:53;;;;;;;21.90;7.88;;;;;;;9.97;100.00;102046.41;5029916;28;20031;-87
2022/05/08 04:54:18;;;;;;;20.52;8.27;;;;;;;10.01;100.00;102045.97;5030042;28;20030;-84
2022/05/08 04:56:44;;;;;;;28.15;8.55;;;;;;;9.99;100.00;102037.22;5051634;28;20116;-87
2022/05/08 04:59:10;;;;;;;19.77;7.38;;;;;;;10.11;100.00;102052.22;5035303;28;20055;-84
2022/05/08 05:01:36;;;;;;;18.83;7.22;;;;;;;9.96;100.00;102024.06;5053264;28;20029;-84
2022/05/08 05:04:01;;;;;;;18.67;7.85;;;;;;;9.84;100.00;102003.69;5050937;28;20485;-83
2022/05/08 05:06:27;;;;;;;17.90;7.13;;;;;;;10.03;100.00;102041.31;5036169;28;20458;-83
2022/05/08 05:08:52;;;;;;;18.55;6.93;;;;;;;10.06;100.00;102042.88;5052973;28;20446;-83
2022/05/08 05:11:19;;;;;;;17.90;7.22;;;;;;;10.07;100.00;102039.19;5018456;28;20446;-85
2022/05/08 05:13:44;;;;;;;16.85;6.97;;;;;;;10.14;100.00;102040.34;5039277;28;20382;-86
2022/05/08 05:16:10;;;;;;;15.02;6.80;;;;;;;10.21;100.00;102038.75;5053255;28;20032;-82
2022/05/08 05:18:35;;;;;;;17.55;6.45;;;;;;;10.22;100.00;102028.88;5036207;28;20522;-84
2022/05/08 05:21:01;;;;;;;18.63;7.38;;;;;;;10.36;100.00;102041.91;5052596;28;20474;-83
2022/05/08 05:23:26;;;;;;;19.38;6.78;;;;;;;10.45;100.00;102035.69;5036779;28;20347;-83
2022/05/08 05:25:52;;;;;;;22.23;6.78;;;;;;;10.54;100.00;102028.59;5052551;28;20025;-84
2022/05/08 05:28:18;;;;;;;13.52;6.43;;;;;;;10.59;100.00;102026.31;5015618;28;20365;-84
2022/05/08 05:30:43;;;;;;;19.63;6.80;;;;;;;10.71;100.00;102033.19;5051289;28;20037;-83
2022/05/08 05:33:15;;;;;;;15.43;6.55;;;;;;;10.75;100.00;102025.72;5052912;28;20101;-83
2022/05/08 05:35:44;;;;;;;12.60;6.10;;;;;;;10.86;100.00;102032.75;5051875;28;20025;-82
2022/05/08 05:38:09;;;;;;;15.07;6.53;;;;;;;10.95;100.00;102035.38;5013714;28;20106;-84
2022/05/08 05:40:35;;;;;;;12.52;5.68;;;;;;;10.98;100.00;102032.44;5020038;28;20416;-83
2022/05/08 05:43:00;;;;;;;14.45;5.60;;;;;;;11.09;100.00;102035.94;5052127;28;20036;-83
2022/05/08 05:45:29;;;;;;;13.10;5.97;;;;;;;11.15;100.00;102033.47;5019054;28;20029;-82
2022/05/08 05:47:54;;;;;;;14.65;5.93;;;;;;;11.57;100.00;102037.53;5048811;28;20451;-82
2022/05/08 05:50:24;;;;;;;14.38;5.95;;;;;;;12.02;100.00;102023.22;5035759;28;20036;-84
2022/05/08 05:52:51;;;;;;;13.20;5.80;;;;;;;12.49;99.51;102026.47;5051158;28;20470;-82
2022/05/08 05:55:17;;;;;;;12.07;5.00;;;;;;;12.90;95.80;102033.97;5032628;28;20032;-86
2022/05/08 05:57:43;;;;;;;15.50;5.75;;;;;;;12.71;95.02;102035.88;5051871;28;20025;-84
2022/05/08 06:00:11;;;;;;;13.43;5.90;;;;;;;12.48;95.47;102027.44;5035599;28;20484;-82
2022/05/08 06:02:39;;;;;;;17.77;6.47;;;;;;;12.24;95.17;101997.59;5035555;28;20047;-84
2022/05/08 06:05:06;;;;;;;12.23;5.82;;;;;;;12.32;95.49;102033.56;5034412;28;20174;-84
2022/05/08 06:07:39;;;;;;;13.68;5.72;;;;;;;12.17;96.24;102037.84;5013697;28;20045;-83
2022/05/08 06:10:06;;;;;;;16.25;5.72;;;;;;;12.08;96.76;102039.59;5027871;28;20060;-85
2022/05/08 06:12:32;;;;;;;13.63;6.20;;;;;;;12.10;96.45;102032.19;5067940;28;20032;-82
2022/05/08 06:14:58;;;;;;;16.02;6.40;;;;;;;12.57;94.78;102022.09;5052782;28;20033;-84
2022/05/08 06:17:24;;;;;;;12.77;6.57;;;;;;;13.07;93.17;102038.47;5033051;28;20501;-82
2022/05/08 06:19:49;;;;;;;18.00;6.88;;;;;;;13.64;90.74;102037.88;5051312;28;20394;-84
2022/05/08 06:22:15;;;;;;;16.58;6.38;;;;;;;14.33;86.05;102043.03;5053541;28;20021;-87
2022/05/08 06:24:40;;;;;;;21.45;7.95;;;;;;;14.94;82.77;102042.47;5033274;28;20041;-84
2022/05/08 06:27:06;;;;;;;18.58;7.88;;;;;;;15.32;79.29;102037.28;5051825;28;20478;-85
2022/05/08 06:29:33;;;;;;;25.17;9.48;;;;;;;15.09;79.28;102039.91;5053179;28;20020;-86
2022/05/08 06:31:59;;;;;;;21.73;6.70;;;;;;;14.89;78.98;102034.00;5032566;28;20044;-82
2022/05/08 06:34:26;;;;;;;19.23;8.15;;;;;;;15.07;78.28;102046.50;5047951;28;20548;-85
2022/05/08 06:36:52;;;;;;;25.90;8.93;;;;;;;15.66;77.20;102055.06;5035090;28;20025;-85
2022/05/08 06:39:17;;;;;;;21.77;7.65;;;;;;;16.11;74.10;102052.59;5018597;28;20032;-84
2022/05/08 06:41:43;;;;;;;19.58;8.00;;;;;;;15.48;75.47;102049.91;5034722;28;20029;-83
2022/05/08 06:44:09;;;;;;;20.38;8.88;;;;;;;14.49;78.23;102053.84;5043697;28;20017;-86
2022/05/08 06:46:36;;;;;;;24.70;8.75;;;;;;;13.77;82.10;102051.75;5034584;28;20025;-83
2022/05/08 06:49:05;;;;;;;21.00;9.68;;;;;;;13.43;84.47;102037.47;5049519;28;20035;-83
2022/05/08 06:51:32;;;;;;;18.98;8.30;;;;;;;13.69;83.95;102032.81;5031739;28;20157;-82
2022/05/08 06:53:57;;;;;;;26.33;8.48;;;;;;;14.78;81.51;102056.03;5030850;28;20036;-83
2022/05/08 06:56:34;;;;;;;22.20;8.65;;;;;;;15.23;77.83;102049.16;5034079;28;20025;-88
2022/05/08 07:02:05;;;;;;;18.15;7.80;;;;;;;17.94;66.68;102048.44;5052633;28;20025;-86
2022/05/08 07:04:40;;;;;;;24.20;9.45;;;;;;;18.65;64.40;102044.84;5050725;28;20418;-86
2022/05/08 07:07:06;;;;;;;17.98;7.88;;;;;;;19.16;60.06;102041.03;5030302;28;20040;-84
2022/05/08 07:09:55;;;;;;;16.63;7.10;;;;;;;19.08;59.52;102044.78;5016484;28;20457;-83
2022/05/08 07:12:23;;;;;;;20.98;7.38;;;;;;;18.58;61.11;102055.72;5017709;28;20033;-85
2022/05/08 07:14:48;;;;;;;20.42;7.60;;;;;;;18.48;61.44;102052.50;5051036;28;20033;-86
2022/05/08 07:17:14;;;;;;;20.98;8.20;;;;;;;19.40;60.58;102058.78;5023605;28;20416;-86
2022/05/08 07:19:40;;;;;;;21.45;8.88;;;;;;;20.42;55.28;102052.31;5049148;28;20040;-86
2022/05/08 07:22:08;;;;;;;21.67;7.63;;;;;;;20.83;52.11;102064.97;5031638;28;20037;-87
2022/05/08 07:24:34;;;;;;;21.85;7.80;;;;;;;20.72;52.37;102068.31;5046339;28;20059;-84
2022/05/08 07:27:32;;;;;;;;;;;;;;;;;;;;;
2022/05/08 07:30:30;;;;;;;19.45;7.72;;;;;;;20.76;51.11;102014.94;4960902;28;20030;-83
2022/05/08 07:33:37;;;;;;;15.57;8.02;;;;;;;21.29;50.16;102015.59;5042846;28;20036;-84
2022/05/08 07:36:12;;;;;;;17.30;7.00;;;;;;;21.87;48.48;102055.78;5032914;28;20470;-85
2022/05/08 07:38:41;;;;;;;19.55;7.38;;;;;;;22.06;47.28;102055.88;5030480;28;20047;-84
2022/05/08 07:41:07;;;;;;;16.20;7.50;;;;;;;21.85;47.57;102051.59;5042246;28;20033;-81
2022/05/08 07:43:33;;;;;;;15.80;7.10;;;;;;;21.57;47.77;102058.28;5044417;28;20471;-84
2022/05/08 07:45:59;;;;;;;11.98;6.70;;;;;;;21.79;47.75;102055.22;5015430;28;20043;-84
2022/05/08 07:48:24;;;;;;;16.67;6.93;;;;;;;21.71;49.07;102051.66;5016696;28;20047;-82
2022/05/08 07:50:50;;;;;;;16.45;7.72;;;;;;;21.25;48.89;102040.91;5041160;28;20032;-81
2022/05/08 07:53:15;;;;;;;12.00;6.53;;;;;;;21.74;47.27;102039.44;5030931;28;20111;-82
2022/05/08 07:55:41;;;;;;;13.50;6.45;;;;;;;22.69;46.56;102044.03;5042051;28;20103;-82
2022/05/08 07:58:07;;;;;;;10.65;6.18;;;;;;;22.46;45.92;102039.16;5013405;28;20043;-83
2022/05/08 08:00:32;;;;;;;15.45;6.95;;;;;;;23.35;45.13;102045.25;5048317;28;20029;-84
2022/05/08 08:02:58;;;;;;;15.60;8.18;;;;;;;23.44;43.22;102032.88;5042396;28;20374;-83
2022/05/08 08:05:24;;;;;;;17.83;7.85;;;;;;;22.05;46.59;102038.59;5024040;28;20120;-83
2022/05/08 08:07:50;;;;;;;13.70;7.55;;;;;;;21.75;47.13;102038.34;5049065;28;20020;-84
2022/05/08 08:10:16;;;;;;;15.13;7.35;;;;;;;21.33;47.90;102031.59;5049438;28;20028;-84
2022/05/08 08:12:41;;;;;;;17.08;8.40;;;;;;;20.74;50.94;102034.25;5049713;28;20078;-83
2022/05/08 08:15:08;;;;;;;13.35;6.70;;;;;;;22.15;49.20;102038.97;5050085;28;20032;-84
2022/05/08 08:17:34;;;;;;;14.75;6.00;;;;;;;22.48;44.99;102024.19;5033366;28;20025;-83
2022/05/08 08:19:59;;;;;;;16.67;6.95;;;;;;;21.26;48.58;102015.22;5050835;28;20021;-83
2022/05/08 08:22:25;;;;;;;13.60;6.60;;;;;;;21.73;47.06;102021.34;5051079;28;20024;-82
2022/05/08 08:24:51;;;;;;;13.25;5.63;;;;;;;21.95;46.72;102019.91;5029991;28;20116;-81
2022/05/08 08:27:18;;;;;;;17.35;8.50;;;;;;;21.82;46.27;102003.56;5045435;28;20102;-83
2022/05/08 08:29:44;;;;;;;15.57;8.15;;;;;;;22.60;45.32;102013.34;5033597;28;20578;-83
2022/05/08 08:32:10;;;;;;;24.73;16.27;;;;;;;23.78;43.50;102011.34;5037872;28;20027;-82
2022/05/08 08:34:36;;;;;;;10.18;6.25;;;;;;;24.24;41.38;102007.88;5054562;28;20025;-80
2022/05/08 08:37:01;;;;;;;13.77;5.78;;;;;;;24.17;40.94;102003.56;5021066;28;20151;-82
2022/05/08 08:39:27;;;;;;;13.48;5.80;;;;;;;23.77;42.39;102006.91;5054771;28;20028;-80
2022/05/08 08:41:58;;;;;;;10.75;5.20;;;;;;;23.05;42.62;102004.88;5048568;28;20037;-81
2022/05/08 08:49:53;;;;;;;8.15;4.70;;;;;;;17.97;57.49;102004.50;5037500;28;20068;-81
2022/05/08 08:52:23;;;;;;;8.75;4.82;;;;;;;16.97;62.36;102005.16;5038550;28;20047;-81
2022/05/08 08:54:49;;;;;;;9.98;4.55;;;;;;;16.48;64.82;102000.22;5017952;28;20120;-81
2022/05/08 08:57:14;;;;;;;10.75;5.10;;;;;;;16.56;65.97;102002.84;5052711;28;20112;-82
2022/05/08 08:59:40;;;;;;;8.30;4.35;;;;;;;17.12;65.46;102000.56;5018677;28;20453;-83
2022/05/08 09:02:14;;;;;;;8.95;4.20;;;;;;;17.19;64.28;101997.09;5019457;28;20060;-81
2022/05/08 09:04:40;;;;;;;7.05;4.00;;;;;;;16.99;64.31;102002.25;5018122;28;20037;-81
2022/05/08 09:07:06;;;;;;;11.32;5.18;;;;;;;17.01;63.85;102000.19;5035270;28;20075;-82
2022/05/08 09:09:31;;;;;;;7.40;4.45;;;;;;;16.60;65.80;101978.91;5029581;28;20036;-82
2022/05/08 09:11:57;;;;;;;11.30;4.45;;;;;;;16.67;66.48;102001.53;5048671;28;20025;-82
2022/05/08 09:14:30;;;;;;;12.93;5.18;;;;;;;17.18;65.26;101998.97;5018168;28;20444;-82
2022/05/08 09:16:56;;;;;;;;;;;;;;;18.31;62.09;101997.47;5036019;28;20052;-81
2022/05/08 09:19:34;;;;;;;7.25;3.67;;;;;;;18.57;59.19;101991.38;5048799;28;19959;-80
2022/05/08 09:22:01;;;;;;;10.43;4.35;;;;;;;18.78;58.96;101993.22;5047624;28;20370;-83
2022/05/08 09:24:26;;;;;;;7.50;4.75;;;;;;;19.24;57.83;101950.91;5030280;28;20056;-83
2022/05/08 09:27:16;;;;;;;10.43;4.80;;;;;;;19.59;56.65;101970.72;5037862;28;20017;-82
2022/05/08 09:29:42;;;;;;;7.35;4.05;;;;;;;19.42;57.04;101981.13;5022926;28;20219;-82
2022/05/08 09:32:08;;;;;;;8.80;4.63;;;;;;;19.55;55.85;101975.75;5018224;28;20494;-81
2022/05/08 09:34:59;;;;;;;11.43;6.18;;;;;;;19.62;55.71;101975.75;5011891;28;20028;-82
2022/05/08 09:37:28;;;;;;;17.33;8.40;;;;;;;20.02;55.03;101985.94;5034327;28;20490;-83
2022/05/08 09:40:19;;;;;;;8.68;5.07;;;;;;;19.83;54.37;101982.97;5049908;28;20017;-83
2022/05/08 09:42:48;;;;;;;8.05;4.68;;;;;;;19.24;56.68;101978.16;5032210;28;20056;-81
2022/05/08 09:45:13;;;;;;;8.10;4.05;;;;;;;19.12;57.47;101977.88;5046941;28;20043;-83
2022/05/08 09:47:44;;;;;;;7.60;4.00;;;;;;;18.96;57.11;101970.91;5020332;28;20451;-83
2022/05/08 09:50:10;;;;;;;10.40;6.10;;;;;;;18.79;58.75;101970.41;5044822;28;20032;-83
2022/05/08 09:52:40;;;;;;;7.15;3.53;;;;;;;18.91;57.32;101965.19;5047775;28;20075;-80
2022/05/08 09:55:12;;;;;;;8.75;5.50;;;;;;;18.85;58.10;101930.59;5032671;28;20040;-81
2022/05/08 09:57:39;;;;;;;9.82;4.70;;;;;;;19.19;57.35;101962.41;5031028;28;20029;-82
2022/05/08 10:00:06;;;;;;;7.75;4.53;;;;;;;19.68;55.50;101963.19;5034458;28;20029;-81
2022/05/08 10:02:31;;;;;;;7.85;4.90;;;;;;;19.97;55.47;101956.53;5034651;28;20044;-82
2022/05/08 10:04:57;;;;;;;12.70;4.97;;;;;;;19.95;53.79;101956.75;5047584;28;20378;-83
2022/05/08 10:07:23;;;;;;;5.45;3.60;;;;;;;19.66;54.39;101952.50;5052341;28;20113;-80
2022/05/08 10:15:30;;;;;;;8.27;4.57;;;;;;;19.10;57.32;101952.72;5043891;28;20402;-84
2022/05/08 10:18:28;;;;;;;7.57;4.75;;;;;;;19.36;55.41;101945.69;5050806;28;20016;-83
2022/05/08 10:21:12;;;;;;;6.68;3.28;;;;;;;19.51;55.42;101927.25;5037952;28;20035;-80
2022/05/08 10:23:42;;;;;;;5.63;3.42;;;;;;;19.53;54.75;101950.56;5012548;28;20040;-81
2022/05/08 10:26:22;;;;;;;5.78;2.90;;;;;;;19.38;54.88;101955.34;5033905;28;20029;-82
2022/05/08 10:29:12;;;;;;;7.75;4.20;;;;;;;19.00;57.55;101960.41;5018880;28;20033;-81
2022/05/08 10:31:48;;;;;;;8.60;4.25;;;;;;;18.91;58.48;101953.47;5030306;28;20036;-82
2022/05/08 10:34:15;;;;;;;7.68;4.18;;;;;;;18.74;59.57;101951.03;5033865;28;20078;-81
2022/05/08 10:37:12;;;;;;;5.90;3.97;;;;;;;18.45;60.37;101955.69;5052190;28;20036;-81
2022/05/08 10:39:41;;;;;;;11.32;6.43;;;;;;;17.92;62.08;101948.97;5030462;28;20374;-80
2022/05/08 10:42:39;;;;;;;8.98;4.18;;;;;;;17.38;62.95;101947.53;5052002;28;20076;-81
2022/05/08 10:45:05;;;;;;;6.47;4.00;;;;;;;17.09;64.14;101959.31;5046909;28;20021;-80
2022/05/08 10:47:37;;;;;;;8.50;4.05;;;;;;;17.50;63.80;101958.78;5051181;28;20086;-80
2022/05/08 10:50:16;;;;;;;14.57;5.30;;;;;;;18.12;62.00;101944.53;5033229;28;20116;-80
2022/05/08 10:52:43;;;;;;;9.00;3.67;;;;;;;18.20;60.40;101943.53;5051102;28;20029;-80
2022/05/08 10:55:14;;;;;;;5.55;4.18;;;;;;;17.86;60.26;101944.28;5059290;28;20184;-79
2022/05/08 10:57:41;;;;;;;8.85;3.15;;;;;;;17.64;61.39;101955.16;5040666;28;20033;-79
2022/05/08 11:00:08;;;;;;;4.88;3.28;;;;;;;17.22;62.16;101947.78;5058858;28;20044;-79
2022/05/08 11:02:47;;;;;;;9.98;4.80;;;;;;;16.98;63.78;101957.94;5058892;28;20039;-79
2022/05/08 11:05:27;;;;;;;5.88;3.17;;;;;;;16.79;64.75;101956.63;5040682;28;20037;-79
2022/05/08 11:07:52;;;;;;;8.68;3.70;;;;;;;17.00;65.53;101946.88;5052501;28;20029;-80
2022/05/08 11:10:31;;;;;;;6.95;3.22;;;;;;;17.03;64.86;101949.22;5046503;28;20094;-81
2022/05/08 11:13:03;;;;;;;9.90;4.30;;;;;;;17.19;65.26;101954.44;5035723;28;20094;-80
2022/05/08 11:15:30;;;;;;;7.68;4.68;;;;;;;17.42;63.56;101924.38;5052605;28;20492;-81
2022/05/08 11:18:17;;;;;;;8.07;3.97;;;;;;;17.69;62.49;101941.81;5020578;28;20385;-81
2022/05/08 11:21:08;;;;;;;4.50;2.97;;;;;;;17.48;63.06;101947.25;5002436;28;20041;-80
2022/05/08 11:23:42;;;;;;;13.48;8.07;;;;;;;17.52;62.96;101943.94;5019633;28;20033;-80
2022/05/08 11:26:12;;;;;;;6.50;3.33;;;;;;;17.72;62.21;101937.88;5032907;28;20124;-81
2022/05/08 11:28:51;;;;;;;8.40;4.25;;;;;;;18.02;61.40;101925.84;5050902;28;20120;-80
2022/05/08 11:31:19;;;;;;;9.73;4.85;;;;;;;18.77;59.41;101937.06;5039326;28;20371;-82
2022/05/08 11:36:34;;;;;;;7.90;4.78;;;;;;;18.88;60.03;101931.03;5029374;28;20090;-81
2022/05/08 11:39:02;;;;;;;9.10;4.25;;;;;;;18.62;59.39;101917.22;5031291;28;20158;-82
2022/05/08 11:41:54;;;;;;;8.25;3.72;;;;;;;18.48;59.77;101929.94;5012963;28;20030;-79
2022/05/08 11:44:23;;;;;;;7.15;4.60;;;;;;;18.09;61.41;101920.44;5029557;28;20115;-80
2022/05/08 11:46:50;;;;;;;7.75;4.40;;;;;;;18.18;61.92;101921.16;5024571;28;20204;-80